KGYY/GYY METAR and TAF weather

Enter ICAO airport designator
Station Type Date Time Source
KGYY METAR 2020/04/04 11:45 UTC NOAA

KGYY 041145Z 01007KT 7SM -RA BKN007 BKN075 07/ A3007


Station Type Date Time Source
KGYY Decoded METAR 2020/04/04 11:45 UTC NOAA

Gary Regional, IN, United States (KGYY) 41-37N 087-25W
Apr 04, 2020 - 07:45 AM EDT / 2020.04.04 1145 UTC
Wind: from the N (010 degrees) at 8 MPH (7 KT):0
Visibility: 7 mile(s):0
Sky conditions: mostly cloudy
Weather: light rain
Temperature: 44 F (7 C)
Pressure (altimeter): 30.07 in. Hg (1018 hPa)
ob: KGYY 041145Z 01007KT 7SM -RA BKN007 BKN075 07/ A3007
cycle: 12

Station Type Date Time Source
KGYY TAF 2020/04/04 12:22 UTC NOAA

TAF KGYY 041120Z 0412/0512 31010KT P6SM OVC010
TEMPO 0412/0414 34012G18KT 6SM -SHRA OVC008
FM041500 36010KT P6SM OVC015
FM041900 03012KT P6SM SKC
FM050200 06004KT P6SM BKN150

Example: see airport list